createdAt,value
2018-09-25T00:00:42.282Z,0.00
2018-09-25T00:01:49.338Z,0.00
2018-09-25T00:02:55.029Z,0.00
2018-09-25T00:04:01.171Z,0.00
2018-09-25T00:05:07.359Z,0.00
2018-09-25T00:06:13.540Z,0.00
2018-09-25T00:07:19.735Z,0.00
2018-09-25T00:08:25.886Z,0.00
2018-09-25T00:09:31.765Z,0.00
2018-09-25T00:10:38.282Z,0.00
2018-09-25T00:11:44.413Z,0.00
2018-09-25T00:12:50.594Z,0.00
2018-09-25T00:13:56.261Z,0.00
2018-09-25T00:15:02.432Z,0.00
2018-09-25T00:16:10.101Z,0.00
2018-09-25T00:17:15.276Z,0.00
2018-09-25T00:18:21.468Z,0.00
2018-09-25T00:19:27.647Z,0.00
2018-09-25T00:20:34.829Z,0.00
2018-09-25T00:21:39.998Z,0.00
2018-09-25T00:22:46.158Z,0.00
2018-09-25T00:23:51.842Z,0.00
2018-09-25T00:24:58.506Z,0.00
2018-09-25T00:26:04.681Z,0.00
2018-09-25T00:27:10.847Z,0.00
2018-09-25T00:28:16.531Z,0.00
2018-09-25T00:29:23.220Z,0.00
2018-09-25T00:30:30.364Z,0.00
2018-09-25T00:31:35.555Z,0.00
2018-09-25T00:32:41.739Z,0.00
2018-09-25T00:33:47.903Z,0.00
2018-09-25T00:34:54.076Z,0.00
2018-09-25T00:36:00.285Z,0.00
2018-09-25T00:37:06.421Z,0.00
2018-09-25T00:38:12.597Z,0.00
2018-09-25T00:39:18.763Z,0.00
2018-09-25T00:40:24.932Z,0.00
2018-09-25T00:41:32.088Z,0.00
2018-09-25T00:42:37.268Z,0.00
2018-09-25T00:43:43.433Z,0.00
2018-09-25T00:44:49.592Z,0.00
2018-09-25T00:45:55.266Z,0.00
2018-09-25T00:47:01.480Z,0.00
2018-09-25T00:48:07.629Z,0.00
2018-09-25T00:49:14.292Z,0.00
2018-09-25T00:50:20.451Z,0.00
2018-09-25T00:51:26.597Z,0.00
2018-09-25T00:52:32.761Z,0.00
2018-09-25T00:53:38.918Z,0.00
2018-09-25T00:54:44.591Z,0.00
2018-09-25T00:55:51.260Z,0.00
2018-09-25T00:56:57.407Z,0.00
2018-09-25T00:58:04.556Z,0.00
2018-09-25T00:59:09.744Z,0.00
2018-09-25T01:00:15.883Z,0.00
2018-09-25T01:01:21.549Z,0.00
2018-09-25T01:02:28.284Z,0.00
2018-09-25T01:03:34.359Z,0.00
2018-09-25T01:04:40.507Z,0.00
2018-09-25T01:05:46.660Z,0.00
2018-09-25T01:06:52.312Z,0.00
2018-09-25T01:07:58.953Z,0.00
2018-09-25T01:09:05.118Z,0.00
2018-09-25T01:10:11.252Z,0.00
2018-09-25T01:11:17.395Z,0.00
2018-09-25T01:12:23.053Z,0.00
2018-09-25T01:13:29.678Z,0.00
2018-09-25T01:14:35.880Z,0.00
2018-09-25T01:15:41.475Z,0.00
2018-09-25T01:16:47.616Z,0.00
2018-09-25T01:17:54.283Z,0.00
2018-09-25T01:19:00.387Z,0.00
2018-09-25T01:20:06.019Z,0.00
2018-09-25T01:21:12.664Z,0.00
2018-09-25T01:22:18.783Z,0.00
2018-09-25T01:23:24.934Z,0.00
2018-09-25T01:24:31.074Z,0.00
2018-09-25T01:25:37.183Z,0.00
2018-09-25T01:26:43.317Z,0.00
2018-09-25T01:27:49.461Z,0.00
2018-09-25T01:28:55.605Z,0.00
2018-09-25T01:30:01.709Z,0.00
2018-09-25T01:31:07.346Z,0.00
2018-09-25T01:32:13.982Z,0.00
2018-09-25T01:33:20.107Z,0.00
2018-09-25T01:34:26.291Z,0.00
2018-09-25T01:35:32.362Z,0.00
2018-09-25T01:36:38.487Z,0.00
2018-09-25T01:37:44.616Z,0.00
2018-09-25T01:38:50.743Z,0.00
2018-09-25T01:39:56.881Z,0.00
2018-09-25T01:41:02.995Z,0.00
2018-09-25T01:42:09.117Z,0.00
2018-09-25T01:43:15.241Z,0.00
2018-09-25T01:44:20.877Z,0.00
2018-09-25T01:45:26.991Z,0.00
2018-09-25T01:46:34.610Z,0.00
2018-09-25T01:47:39.740Z,0.00
2018-09-25T01:48:45.860Z,0.00
2018-09-25T01:49:51.991Z,0.00
2018-09-25T01:50:58.119Z,0.00
2018-09-25T01:52:04.273Z,0.00
2018-09-25T01:53:10.344Z,0.00
2018-09-25T01:54:16.492Z,0.00
2018-09-25T01:55:22.599Z,0.00
2018-09-25T01:56:28.717Z,0.00
2018-09-25T01:57:34.843Z,0.00
2018-09-25T01:58:40.468Z,0.00
2018-09-25T01:59:47.090Z,0.00
2018-09-25T02:00:53.205Z,0.00
2018-09-25T02:01:59.334Z,0.00
2018-09-25T02:03:05.452Z,0.00
2018-09-25T02:04:11.082Z,0.00
2018-09-25T02:05:17.198Z,0.00
2018-09-25T02:06:23.796Z,0.00
2018-09-25T02:07:29.921Z,0.00
2018-09-25T02:08:36.041Z,0.00
2018-09-25T02:09:42.281Z,0.00
2018-09-25T02:10:48.277Z,0.00
2018-09-25T02:11:54.388Z,0.00
2018-09-25T02:13:00.507Z,0.00
2018-09-25T02:14:06.612Z,0.00
2018-09-25T02:15:12.743Z,0.00
2018-09-25T02:16:18.837Z,0.00
2018-09-25T02:17:24.961Z,0.00
2018-09-25T02:18:31.061Z,0.00
2018-09-25T02:19:37.171Z,0.00
2018-09-25T02:20:42.776Z,0.00
2018-09-25T02:21:48.896Z,0.00
2018-09-25T02:22:55.499Z,0.00
2018-09-25T02:24:01.107Z,0.00
2018-09-25T02:25:07.722Z,0.00
2018-09-25T02:26:13.824Z,0.00
2018-09-25T02:27:19.933Z,0.00
2018-09-25T02:28:26.033Z,0.00
2018-09-25T02:30:46.980Z,0.00
2018-09-25T02:31:52.607Z,0.00
2018-09-25T02:32:58.727Z,0.00
2018-09-25T02:34:04.319Z,0.00
2018-09-25T02:35:10.950Z,0.00
2018-09-25T02:36:17.024Z,0.00
2018-09-25T02:37:23.131Z,0.00
2018-09-25T02:38:29.235Z,0.00
2018-09-25T02:39:35.329Z,0.00
2018-09-25T02:40:41.444Z,0.00
2018-09-25T02:41:47.034Z,0.00
2018-09-25T02:42:53.122Z,0.00
2018-09-25T02:43:59.724Z,0.00
2018-09-25T02:45:05.316Z,0.00
2018-09-25T02:46:12.919Z,0.00
2018-09-25T02:47:17.523Z,0.00
2018-09-25T02:48:24.117Z,0.00
2018-09-25T02:49:30.271Z,0.00
2018-09-25T02:50:36.309Z,0.00
2018-09-25T02:51:42.388Z,0.00
2018-09-25T02:52:48.510Z,0.00
2018-09-25T02:53:54.586Z,0.00
2018-09-25T02:55:00.687Z,0.00
2018-09-25T02:56:06.782Z,0.00
2018-09-25T02:57:12.863Z,0.00
2018-09-25T02:58:18.969Z,0.00
2018-09-25T02:59:24.550Z,0.00
2018-09-25T03:00:31.154Z,0.00
2018-09-25T03:01:36.744Z,0.00
2018-09-25T03:02:43.332Z,0.00
2018-09-25T03:03:49.415Z,0.00
2018-09-25T03:04:55.497Z,0.00
2018-09-25T03:06:01.610Z,0.00
2018-09-25T03:07:07.685Z,0.00
2018-09-25T03:08:13.771Z,0.00
2018-09-25T03:09:19.861Z,0.00
2018-09-25T03:10:25.952Z,0.00
2018-09-25T03:11:31.560Z,0.00
2018-09-25T03:12:38.117Z,0.00
2018-09-25T03:13:43.707Z,0.00
2018-09-25T03:14:50.415Z,0.00
2018-09-25T03:15:56.372Z,0.00
2018-09-25T03:17:02.463Z,0.00
2018-09-25T03:18:08.553Z,0.00
2018-09-25T03:19:14.690Z,0.00
2018-09-25T03:20:20.229Z,0.00
2018-09-25T03:21:26.802Z,0.00
2018-09-25T03:22:32.894Z,0.00
2018-09-25T03:23:39.028Z,0.00
2018-09-25T03:24:45.052Z,0.00
2018-09-25T03:25:51.143Z,0.00
2018-09-25T03:26:57.222Z,0.00
2018-09-25T03:28:03.295Z,0.00
2018-09-25T03:29:08.880Z,0.00
2018-09-25T03:30:15.463Z,0.00
2018-09-25T03:31:21.564Z,0.00
2018-09-25T03:32:27.627Z,0.00
2018-09-25T03:33:33.712Z,0.00
2018-09-25T03:34:39.828Z,0.00
2018-09-25T03:35:45.888Z,0.00
2018-09-25T03:36:51.452Z,0.00
2018-09-25T03:37:57.528Z,0.00
2018-09-25T03:39:04.098Z,0.00
2018-09-25T03:40:10.180Z,0.00
2018-09-25T03:41:16.252Z,0.00
2018-09-25T03:42:21.843Z,0.00
2018-09-25T03:43:28.396Z,0.00
2018-09-25T03:44:34.483Z,0.00
2018-09-25T03:45:40.063Z,0.00
2018-09-25T03:46:46.143Z,0.00
2018-09-25T03:47:52.709Z,0.00
2018-09-25T03:48:58.779Z,0.00
2018-09-25T03:50:04.851Z,0.00
2018-09-25T03:51:10.935Z,0.00
2018-09-25T03:52:16.513Z,0.00
2018-09-25T03:53:23.079Z,0.00
2018-09-25T03:54:29.148Z,0.00
2018-09-25T03:55:35.275Z,0.00
2018-09-25T03:56:41.290Z,0.00
2018-09-25T03:57:46.888Z,0.00
2018-09-25T03:58:53.437Z,0.00
2018-09-25T03:59:59.499Z,0.00
2018-09-25T04:01:05.580Z,0.00
2018-09-25T04:02:11.657Z,0.00
2018-09-25T04:03:17.718Z,0.00
2018-09-25T04:04:23.787Z,0.00
2018-09-25T04:05:29.864Z,0.00
2018-09-25T04:06:35.425Z,0.00
2018-09-25T04:07:42.003Z,0.00
2018-09-25T04:08:48.091Z,0.00
2018-09-25T04:09:54.145Z,0.00
2018-09-25T04:11:00.210Z,0.00
2018-09-25T04:12:06.281Z,0.00
2018-09-25T04:13:12.345Z,0.00
2018-09-25T04:14:17.920Z,0.00
2018-09-25T04:15:24.486Z,0.00
2018-09-25T04:16:30.553Z,0.00
2018-09-25T04:17:36.625Z,0.00
2018-09-25T04:18:42.186Z,0.00
2018-09-25T04:19:48.251Z,0.00
2018-09-25T04:20:54.319Z,0.00
2018-09-25T04:22:00.882Z,0.00
2018-09-25T04:23:06.970Z,0.00
2018-09-25T04:24:13.524Z,0.00
2018-09-25T04:25:18.593Z,0.00
2018-09-25T04:26:25.277Z,0.00
2018-09-25T04:27:31.225Z,0.00
2018-09-25T04:28:37.282Z,0.00
2018-09-25T04:29:43.350Z,0.00
2018-09-25T04:30:49.425Z,0.00
2018-09-25T04:31:55.991Z,0.00
2018-09-25T04:33:01.551Z,0.00
2018-09-25T04:34:07.613Z,0.00
2018-09-25T04:35:13.675Z,0.00
2018-09-25T04:36:19.248Z,0.00
2018-09-25T04:37:25.813Z,0.00
2018-09-25T04:38:31.384Z,0.00
2018-09-25T04:39:37.439Z,0.00
2018-09-25T04:40:44.004Z,0.00
2018-09-25T04:41:49.566Z,0.00
2018-09-25T04:42:56.139Z,0.00
2018-09-25T04:44:02.199Z,0.00
2018-09-25T04:45:08.255Z,4.00
2018-09-25T04:46:14.323Z,0.00
2018-09-25T04:47:20.378Z,4.00
2018-09-25T04:48:26.458Z,4.00
2018-09-25T04:49:32.027Z,4.00
2018-09-25T04:50:38.564Z,4.00
2018-09-25T04:51:44.645Z,4.00
2018-09-25T04:52:50.711Z,8.00
2018-09-25T04:53:57.094Z,12.00
2018-09-25T04:55:02.822Z,12.00
2018-09-25T04:56:08.883Z,16.00
2018-09-25T04:57:14.954Z,24.00
2018-09-25T04:58:21.102Z,28.00
2018-09-25T04:59:27.100Z,36.00
2018-09-25T05:00:33.143Z,40.00
2018-09-25T05:01:38.692Z,48.00
2018-09-25T05:02:44.789Z,60.00
2018-09-25T05:03:51.322Z,68.00
2018-09-25T05:04:57.373Z,80.00
2018-09-25T05:06:02.942Z,100.00
2018-09-25T05:07:09.502Z,116.00
2018-09-25T05:08:15.584Z,132.00
2018-09-25T05:09:21.634Z,152.00
2018-09-25T05:10:27.325Z,176.00
2018-09-25T05:11:33.745Z,200.00
2018-09-25T05:12:39.312Z,228.00
2018-09-25T05:13:45.880Z,256.00
2018-09-25T05:14:51.936Z,288.00
2018-09-25T05:15:57.988Z,324.00
2018-09-25T05:17:03.563Z,360.00
2018-09-25T05:18:09.640Z,396.00
2018-09-25T05:19:16.181Z,436.00
2018-09-25T05:20:22.248Z,480.00
2018-09-25T05:21:28.353Z,524.00
2018-09-25T05:22:34.366Z,564.00
2018-09-25T05:23:39.935Z,612.00
2018-09-25T05:24:46.007Z,660.00
2018-09-25T05:25:52.058Z,708.00
2018-09-25T05:26:59.628Z,752.00
2018-09-25T05:28:04.182Z,800.00
2018-09-25T05:29:10.771Z,848.00
2018-09-25T05:30:16.295Z,892.00
2018-09-25T05:31:22.860Z,944.00
2018-09-25T05:32:28.922Z,996.00
2018-09-25T05:33:34.973Z,1048.00
2018-09-25T05:34:40.557Z,1108.00
2018-09-25T05:35:47.110Z,1156.00
2018-09-25T05:36:53.272Z,1208.00
2018-09-25T05:37:59.286Z,1256.00
2018-09-25T05:39:05.295Z,1300.00
2018-09-25T05:40:11.360Z,1348.00
2018-09-25T05:41:16.928Z,1392.00
2018-09-25T05:42:23.500Z,1440.00
2018-09-25T05:43:29.556Z,1484.00
2018-09-25T05:44:35.624Z,1528.00
2018-09-25T05:45:41.699Z,1572.00
2018-09-25T05:46:47.739Z,1612.00
2018-09-25T05:47:53.314Z,1652.00
2018-09-25T05:48:59.950Z,1696.00
2018-09-25T05:50:05.948Z,1732.00
2018-09-25T05:51:12.016Z,1772.00
2018-09-25T05:52:18.169Z,1808.00
2018-09-25T05:53:23.651Z,1844.00
2018-09-25T05:54:30.223Z,1876.00
2018-09-25T05:55:35.843Z,1912.00
2018-09-25T05:56:42.359Z,1948.00
2018-09-25T05:57:48.420Z,1980.00
2018-09-25T05:58:54.503Z,2012.00
2018-09-25T06:00:00.087Z,2044.00
2018-09-25T06:01:06.719Z,2076.00
2018-09-25T06:02:12.729Z,2108.00
2018-09-25T06:03:18.763Z,2136.00
2018-09-25T06:04:24.885Z,2164.00
2018-09-25T06:05:30.964Z,2196.00
2018-09-25T06:06:36.538Z,2224.00
2018-09-25T06:07:43.114Z,2252.00
2018-09-25T06:08:48.721Z,2280.00
2018-09-25T06:09:55.294Z,2304.00
2018-09-25T06:11:01.388Z,2332.00
2018-09-25T06:12:07.475Z,2360.00
2018-09-25T06:13:13.566Z,2380.00
2018-09-25T06:14:19.656Z,2404.00
2018-09-25T06:15:25.263Z,2428.00
2018-09-25T06:16:31.353Z,2448.00
2018-09-25T06:17:37.442Z,2472.00
2018-09-25T06:18:43.553Z,2492.00
2018-09-25T06:19:49.650Z,2512.00
2018-09-25T06:20:56.258Z,2528.00
2018-09-25T06:22:01.860Z,2548.00
2018-09-25T06:23:08.518Z,2564.00
2018-09-25T06:24:14.077Z,2584.00
2018-09-25T06:25:20.187Z,2604.00
2018-09-25T06:26:26.795Z,2620.00
2018-09-25T06:27:32.394Z,2636.00
2018-09-25T06:28:38.532Z,2656.00
2018-09-25T06:29:45.107Z,2672.00
2018-09-25T06:30:51.280Z,2692.00
2018-09-25T06:31:57.343Z,2708.00
2018-09-25T06:33:03.458Z,2720.00
2018-09-25T06:34:09.080Z,2740.00
2018-09-25T06:35:15.297Z,2756.00
2018-09-25T06:36:21.325Z,2768.00
2018-09-25T06:37:27.458Z,2780.00
2018-09-25T06:38:34.048Z,2800.00
2018-09-25T06:39:40.299Z,2812.00
2018-09-25T06:40:45.843Z,2824.00
2018-09-25T06:41:51.924Z,2840.00
2018-09-25T06:42:58.537Z,2852.00
2018-09-25T06:44:04.680Z,2872.00
2018-09-25T06:45:10.296Z,2884.00
2018-09-25T06:46:16.430Z,2896.00
2018-09-25T06:47:23.086Z,2908.00
2018-09-25T06:48:28.692Z,2920.00
2018-09-25T06:49:35.312Z,2932.00
2018-09-25T06:50:40.949Z,2940.00
2018-09-25T06:51:47.123Z,2956.00
2018-09-25T06:52:53.225Z,2968.00
2018-09-25T06:53:59.853Z,2988.00
2018-09-25T06:55:05.567Z,3000.00
2018-09-25T06:56:12.622Z,3016.00
2018-09-25T06:57:17.760Z,3024.00
2018-09-25T06:58:24.392Z,3044.00
2018-09-25T06:59:30.050Z,3056.00
2018-09-25T07:00:36.678Z,3072.00
2018-09-25T07:01:42.811Z,3084.00
2018-09-25T07:02:48.956Z,3096.00
2018-09-25T07:03:55.104Z,3112.00
2018-09-25T07:05:00.750Z,3128.00
2018-09-25T07:06:07.392Z,3148.00
2018-09-25T07:07:13.528Z,3164.00
2018-09-25T07:08:19.174Z,3180.00
2018-09-25T07:09:25.326Z,3204.00
2018-09-25T07:10:32.135Z,3252.00
2018-09-25T07:11:37.616Z,3284.00
2018-09-25T07:12:43.765Z,3292.00
2018-09-25T07:13:50.409Z,3284.00
2018-09-25T07:14:56.559Z,3284.00
2018-09-25T07:16:02.699Z,3292.00
2018-09-25T07:17:08.361Z,3292.00
2018-09-25T07:18:15.005Z,3304.00
2018-09-25T07:19:20.661Z,3312.00
2018-09-25T07:20:27.303Z,3320.00
2018-09-25T07:21:32.977Z,3344.00
2018-09-25T07:22:39.150Z,3388.00
2018-09-25T07:23:45.294Z,3508.00
2018-09-25T07:24:51.938Z,3668.00
2018-09-25T07:25:57.596Z,4108.00
2018-09-25T07:27:04.290Z,4908.00
2018-09-25T07:28:09.906Z,4436.00
2018-09-25T07:29:16.560Z,3756.00
2018-09-25T07:30:22.746Z,3524.00
2018-09-25T07:31:28.990Z,3488.00
2018-09-25T07:32:34.566Z,3492.00
2018-09-25T07:33:40.704Z,3528.00
2018-09-25T07:34:47.376Z,3596.00
2018-09-25T07:35:53.020Z,3720.00
2018-09-25T07:36:59.687Z,4316.00
2018-09-25T07:38:05.838Z,6784.00
2018-09-25T07:39:11.514Z,8420.00
2018-09-25T07:40:17.694Z,8188.00
2018-09-25T07:41:24.355Z,9028.00
2018-09-25T07:42:30.535Z,11132.00
2018-09-25T07:43:36.707Z,12076.00
2018-09-25T07:44:42.915Z,11316.00
2018-09-25T07:45:49.087Z,8968.00
2018-09-25T07:46:55.296Z,7880.00
2018-09-25T07:48:01.529Z,7860.00
2018-09-25T07:49:07.205Z,8312.00
2018-09-25T07:50:13.891Z,10832.00
2018-09-25T07:51:19.604Z,13724.00
2018-09-25T07:52:25.811Z,14192.00
2018-09-25T07:53:32.025Z,13040.00
2018-09-25T07:54:38.741Z,9692.00
2018-09-25T07:55:45.135Z,9980.00
2018-09-25T07:56:50.677Z,9948.00
2018-09-25T07:57:57.404Z,11504.00
2018-09-25T07:59:03.641Z,11764.00
2018-09-25T08:00:09.845Z,11416.00
2018-09-25T08:01:16.061Z,9024.00
2018-09-25T08:02:21.805Z,9192.00
2018-09-25T08:03:28.081Z,9716.00
2018-09-25T08:04:34.254Z,10432.00
2018-09-25T08:05:40.480Z,12252.00
2018-09-25T08:06:46.711Z,13388.00
2018-09-25T08:07:53.455Z,15012.00
2018-09-25T08:08:59.747Z,13856.00
2018-09-25T08:10:05.441Z,12652.00
2018-09-25T08:11:11.679Z,11068.00
2018-09-25T08:12:18.430Z,11432.00
2018-09-25T08:13:24.685Z,10388.00
2018-09-25T08:14:30.928Z,7880.00
2018-09-25T08:15:36.674Z,8384.00
2018-09-25T08:16:42.934Z,9424.00
2018-09-25T08:17:49.165Z,10324.00
2018-09-25T08:18:55.910Z,8524.00
2018-09-25T08:20:01.651Z,6364.00
2018-09-25T08:21:08.404Z,5344.00
2018-09-25T08:22:14.142Z,5752.00
2018-09-25T08:23:21.235Z,5140.00
2018-09-25T08:24:29.174Z,4620.00
2018-09-25T08:25:33.363Z,4320.00
2018-09-25T08:26:39.105Z,4048.00
2018-09-25T08:27:45.832Z,3992.00
2018-09-25T08:28:51.574Z,4000.00
2018-09-25T08:29:57.809Z,4012.00
2018-09-25T08:31:04.043Z,4028.00
2018-09-25T08:32:10.297Z,4024.00
2018-09-25T08:33:17.004Z,4044.00
2018-09-25T08:34:22.724Z,4068.00
2018-09-25T08:35:34.132Z,4080.00
2018-09-25T08:36:43.486Z,4092.00
2018-09-25T08:37:49.712Z,4120.00
2018-09-25T08:38:56.477Z,4112.00
2018-09-25T08:40:02.680Z,4120.00
2018-09-25T08:41:08.914Z,4144.00
2018-09-25T08:42:14.653Z,4156.00
2018-09-25T08:43:32.457Z,4156.00
2018-09-25T08:47:48.542Z,4228.00
2018-09-25T08:48:57.721Z,4292.00
2018-09-25T08:50:11.844Z,4296.00
2018-09-25T08:51:21.812Z,4288.00
2018-09-25T08:52:31.590Z,4296.00
2018-09-25T08:53:44.105Z,4324.00
2018-09-25T08:57:50.980Z,4384.00
2018-09-25T08:58:56.741Z,4408.00
2018-09-25T09:00:02.975Z,4432.00
2018-09-25T09:01:09.253Z,4476.00
2018-09-25T09:02:15.977Z,4532.00
2018-09-25T09:03:21.726Z,4572.00
2018-09-25T09:04:28.485Z,4668.00
2018-09-25T09:05:34.719Z,4704.00
2018-09-25T09:06:40.973Z,4780.00
2018-09-25T09:07:47.237Z,4840.00
2018-09-25T09:08:53.503Z,4888.00
2018-09-25T09:09:59.757Z,4888.00
2018-09-25T09:11:06.022Z,4904.00
2018-09-25T09:12:12.281Z,5000.00
2018-09-25T09:13:18.110Z,5180.00
2018-09-25T09:14:24.319Z,5552.00
2018-09-25T09:15:30.565Z,5800.00
2018-09-25T09:16:37.381Z,6368.00
2018-09-25T09:17:43.623Z,6852.00
2018-09-25T09:18:49.867Z,6992.00
2018-09-25T09:19:55.694Z,7356.00
2018-09-25T09:21:02.101Z,6580.00
2018-09-25T09:22:08.671Z,6012.00
2018-09-25T09:23:14.457Z,5852.00
2018-09-25T09:24:21.286Z,5900.00
2018-09-25T09:25:27.000Z,5904.00
2018-09-25T09:26:33.278Z,5796.00
2018-09-25T09:27:39.548Z,5792.00
2018-09-25T09:28:46.330Z,5632.00
2018-09-25T09:29:52.104Z,5636.00
2018-09-25T09:30:58.377Z,5676.00
2018-09-25T09:32:04.662Z,5712.00
2018-09-25T09:33:10.938Z,5752.00
2018-09-25T09:34:17.218Z,5804.00
2018-09-25T09:35:23.529Z,5864.00
2018-09-25T09:36:30.289Z,5948.00
2018-09-25T09:37:36.074Z,5972.00
2018-09-25T09:38:42.857Z,5888.00
2018-09-25T09:39:49.158Z,5784.00
2018-09-25T09:40:55.008Z,5644.00
2018-09-25T09:42:01.341Z,5508.00
2018-09-25T09:43:07.521Z,5416.00
2018-09-25T09:44:13.809Z,5400.00
2018-09-25T09:45:20.109Z,5388.00
2018-09-25T09:46:26.382Z,5368.00
2018-09-25T09:47:33.275Z,5360.00
2018-09-25T09:48:38.979Z,5400.00
2018-09-25T09:49:45.296Z,5464.00
2018-09-25T09:50:51.578Z,5532.00
2018-09-25T09:51:57.870Z,5532.00
2018-09-25T09:53:04.661Z,5512.00
2018-09-25T09:54:10.467Z,5516.00
2018-09-25T09:55:16.778Z,5524.00
2018-09-25T09:56:23.116Z,5524.00
2018-09-25T09:57:29.863Z,5552.00
2018-09-25T09:58:36.275Z,5564.00
2018-09-25T09:59:42.475Z,5580.00
2018-09-25T10:00:48.290Z,5624.00
2018-09-25T10:01:54.590Z,5676.00
2018-09-25T10:03:01.391Z,5732.00
2018-09-25T10:04:07.195Z,5780.00
2018-09-25T10:05:13.503Z,5804.00
2018-09-25T10:06:20.305Z,5856.00
2018-09-25T10:07:26.115Z,5916.00
2018-09-25T10:08:33.096Z,5980.00
2018-09-25T10:09:38.787Z,6060.00
2018-09-25T10:10:45.047Z,6084.00
2018-09-25T10:11:51.848Z,6088.00
2018-09-25T10:12:57.675Z,6104.00
2018-09-25T10:14:04.465Z,6116.00
2018-09-25T10:15:10.301Z,6128.00
2018-09-25T10:16:17.105Z,6128.00
2018-09-25T10:17:23.430Z,6152.00
2018-09-25T10:18:29.250Z,6140.00
2018-09-25T10:19:36.066Z,6136.00
2018-09-25T10:20:41.899Z,6128.00
2018-09-25T10:21:48.229Z,6132.00
2018-09-25T10:22:55.027Z,6168.00
2018-09-25T10:24:01.354Z,6152.00
2018-09-25T10:25:07.191Z,6160.00
2018-09-25T10:26:13.518Z,6148.00
2018-09-25T10:27:19.845Z,6160.00
2018-09-25T10:28:26.641Z,6196.00
2018-09-25T10:29:32.977Z,6240.00
2018-09-25T10:30:38.820Z,6276.00
2018-09-25T10:31:46.629Z,6316.00
2018-09-25T10:32:51.471Z,6324.00
2018-09-25T10:33:57.808Z,6320.00
2018-09-25T10:35:04.144Z,6328.00
2018-09-25T10:36:10.979Z,6328.00
2018-09-25T10:37:17.809Z,6332.00
2018-09-25T10:38:23.153Z,6348.00
2018-09-25T10:39:29.987Z,6344.00
2018-09-25T10:40:35.823Z,6328.00
2018-09-25T10:41:42.370Z,6344.00
2018-09-25T10:42:49.017Z,6376.00
2018-09-25T10:43:55.352Z,6436.00
2018-09-25T10:45:01.189Z,6456.00
2018-09-25T10:46:07.548Z,6500.00
2018-09-25T10:47:13.893Z,6524.00
2018-09-25T10:48:20.218Z,6536.00
2018-09-25T10:49:26.589Z,6552.00
2018-09-25T10:50:32.913Z,6504.00
2018-09-25T10:51:39.285Z,6496.00
2018-09-25T10:52:45.620Z,6484.00
2018-09-25T10:53:52.465Z,6468.00
2018-09-25T10:54:58.823Z,6456.00
2018-09-25T10:56:04.793Z,6428.00
2018-09-25T10:57:11.047Z,6428.00
2018-09-25T10:58:17.890Z,6460.00
2018-09-25T10:59:23.756Z,6476.00
2018-09-25T11:00:30.112Z,6552.00
2018-09-25T11:01:36.487Z,6556.00
2018-09-25T11:02:42.849Z,6592.00
2018-09-25T11:03:49.205Z,6596.00
2018-09-25T11:04:55.586Z,6588.00
2018-09-25T11:06:01.945Z,6596.00
2018-09-25T11:07:08.316Z,6592.00
2018-09-25T11:08:16.279Z,6612.00
2018-09-25T11:09:21.063Z,6664.00
2018-09-25T11:10:27.419Z,6668.00
2018-09-25T11:11:33.808Z,6676.00
2018-09-25T11:12:40.308Z,6692.00
2018-09-25T11:13:46.545Z,6712.00
2018-09-25T11:14:52.921Z,6688.00
2018-09-25T11:15:59.795Z,6720.00
2018-09-25T11:17:06.313Z,6756.00
2018-09-25T11:18:12.067Z,6816.00
2018-09-25T11:19:18.953Z,6884.00
2018-09-25T11:20:25.334Z,6948.00
2018-09-25T11:21:31.254Z,7056.00
2018-09-25T11:22:38.281Z,7152.00
2018-09-25T11:23:44.126Z,7236.00
2018-09-25T11:24:50.619Z,7396.00
2018-09-25T11:25:57.153Z,7920.00
2018-09-25T11:27:04.283Z,35296.00
2018-09-25T11:28:10.310Z,85568.00
2018-09-25T11:29:17.431Z,87904.00
2018-09-25T11:30:23.585Z,84800.00
2018-09-25T11:31:30.266Z,85632.00
2018-09-25T11:32:36.980Z,88768.00
2018-09-25T11:33:43.709Z,90944.00
2018-09-25T11:34:50.963Z,92640.00
2018-09-25T11:35:57.269Z,90720.00
2018-09-25T11:37:04.091Z,89984.00
2018-09-25T11:38:10.922Z,89600.00
2018-09-25T11:39:17.813Z,87264.00
2018-09-25T11:40:24.680Z,87776.00
2018-09-25T11:41:31.570Z,90720.00
2018-09-25T11:42:38.497Z,91328.00
2018-09-25T11:43:45.429Z,86688.00
2018-09-25T11:44:52.359Z,85056.00
2018-09-25T11:45:59.336Z,85728.00
2018-09-25T11:47:06.276Z,86048.00
2018-09-25T11:48:13.693Z,82720.00
2018-09-25T11:49:20.159Z,82720.00
2018-09-25T11:50:27.140Z,83072.00
2018-09-25T11:51:34.124Z,80128.00
2018-09-25T11:52:41.150Z,72480.00
2018-09-25T11:53:48.106Z,72928.00
2018-09-25T11:54:55.113Z,79168.00
2018-09-25T11:56:02.627Z,79072.00
2018-09-25T11:57:09.646Z,75584.00
2018-09-25T11:58:16.192Z,74688.00
2018-09-25T11:59:23.217Z,72352.00
2018-09-25T12:00:30.257Z,73728.00
2018-09-25T12:01:37.312Z,75872.00
2018-09-25T12:02:44.864Z,73152.00
2018-09-25T12:03:51.431Z,68704.00
2018-09-25T12:04:58.504Z,67200.00
2018-09-25T12:06:05.568Z,67328.00
2018-09-25T12:07:12.665Z,65984.00
2018-09-25T12:08:19.750Z,63424.00
2018-09-25T12:09:26.834Z,58880.00
2018-09-25T12:10:33.949Z,52320.00
2018-09-25T12:11:41.037Z,45760.00
2018-09-25T12:12:48.664Z,41600.00
2018-09-25T12:13:55.264Z,41056.00
2018-09-25T12:15:02.409Z,38848.00
2018-09-25T12:16:09.512Z,36512.00
2018-09-25T12:17:16.634Z,35008.00
2018-09-25T12:18:24.277Z,34080.00
2018-09-25T12:19:30.897Z,33216.00
2018-09-25T12:20:38.539Z,33280.00
2018-09-25T12:21:45.692Z,32896.00
2018-09-25T12:22:52.835Z,33280.00
2018-09-25T12:23:59.479Z,33984.00
2018-09-25T12:25:06.647Z,34752.00
2018-09-25T12:26:14.315Z,36160.00
2018-09-25T12:27:20.999Z,37600.00
2018-09-25T12:28:28.189Z,39104.00
2018-09-25T12:29:35.376Z,39776.00
2018-09-25T12:30:42.595Z,39200.00
2018-09-25T12:31:49.827Z,39872.00
2018-09-25T12:32:57.087Z,21600.00
2018-09-25T12:34:04.273Z,15748.00
2018-09-25T12:35:11.429Z,13852.00
2018-09-25T12:36:18.548Z,14136.00
2018-09-25T12:37:25.638Z,21536.00
2018-09-25T12:38:33.285Z,35136.00
2018-09-25T12:39:39.750Z,34784.00
2018-09-25T12:40:47.318Z,34816.00
2018-09-25T12:41:53.905Z,35808.00
2018-09-25T12:43:00.997Z,37312.00
2018-09-25T12:44:08.127Z,38624.00
2018-09-25T12:45:15.253Z,35904.00
2018-09-25T12:46:22.903Z,33216.00
2018-09-25T12:47:29.575Z,37408.00
2018-09-25T12:48:36.757Z,15076.00
2018-09-25T12:49:44.266Z,14552.00
2018-09-25T12:50:50.992Z,14164.00
2018-09-25T12:51:58.048Z,13536.00
2018-09-25T12:53:05.575Z,13308.00
2018-09-25T12:54:12.080Z,16240.00
2018-09-25T12:55:19.044Z,14536.00
2018-09-25T12:56:26.470Z,15008.00
2018-09-25T12:57:33.399Z,37120.00
2018-09-25T12:58:40.346Z,42656.00
2018-09-25T12:59:46.796Z,44928.00
2018-09-25T13:00:53.768Z,43328.00
2018-09-25T13:02:00.758Z,43296.00
2018-09-25T13:03:07.766Z,43712.00
2018-09-25T13:04:15.314Z,44928.00
2018-09-25T13:05:21.869Z,47744.00
2018-09-25T13:06:29.453Z,49248.00
2018-09-25T13:07:36.067Z,49888.00
2018-09-25T13:08:43.220Z,50400.00
2018-09-25T13:09:50.893Z,49632.00
2018-09-25T13:10:58.067Z,49568.00
2018-09-25T13:12:05.353Z,48480.00
2018-09-25T13:13:12.094Z,48064.00
2018-09-25T13:14:19.368Z,27648.00
2018-09-25T13:15:27.101Z,28448.00
2018-09-25T13:16:33.858Z,43616.00
2018-09-25T13:17:41.448Z,42272.00
2018-09-25T13:18:48.871Z,43840.00
2018-09-25T13:19:55.646Z,36384.00
2018-09-25T13:21:02.912Z,42592.00
2018-09-25T13:22:10.213Z,42720.00
2018-09-25T13:23:17.536Z,43872.00
2018-09-25T13:24:24.888Z,43648.00
2018-09-25T13:25:32.233Z,41600.00
2018-09-25T13:27:46.983Z,20640.00
2018-09-25T13:28:54.327Z,20288.00
2018-09-25T13:30:01.654Z,18048.00
2018-09-25T13:31:09.429Z,16964.00
2018-09-25T13:32:16.660Z,16444.00
2018-09-25T13:33:23.399Z,16256.00
2018-09-25T13:34:30.527Z,16112.00
2018-09-25T13:35:38.131Z,16032.00
2018-09-25T13:36:45.275Z,16696.00
2018-09-25T13:37:51.782Z,15704.00
2018-09-25T13:38:58.817Z,14676.00
2018-09-25T13:40:06.326Z,15508.00
2018-09-25T13:41:13.299Z,31264.00
2018-09-25T13:42:19.789Z,16984.00
2018-09-25T13:43:27.277Z,15600.00
2018-09-25T13:44:34.214Z,16872.00
2018-09-25T13:45:41.160Z,15596.00
2018-09-25T13:46:48.091Z,15652.00
2018-09-25T13:47:54.520Z,16776.00
2018-09-25T13:49:01.439Z,17824.00
2018-09-25T13:50:08.844Z,20672.00
2018-09-25T13:51:15.764Z,42048.00
2018-09-25T13:52:22.161Z,42560.00
2018-09-25T13:53:29.085Z,43680.00
2018-09-25T13:54:36.022Z,44960.00